Time;durP1;ratioP1;P1;durP2;ratioP2;P2;SDS_P1;SDS_P2;PMS_P1;PMS_P2;Temp;Humidity;BMP_temperature;BMP_pressure;BME280_temperature;BME280_humidity;BME280_pressure;Samples;Min_cycle;Max_cycle;Signal;HPM_P1;HPM_P2
2023/01/26 00:02:09;;;;;;;61.10;21.88;;;;;;;3.20;76.24;100845.38;4995535;28;20459;-75
2023/01/26 00:04:35;;;;;;;66.03;20.80;;;;;;;3.18;76.43;100840.13;4994731;28;20042;-75
2023/01/26 00:07:00;;;;;;;60.33;21.17;;;;;;;3.18;76.28;100841.84;4994673;28;20049;-74
2023/01/26 00:09:26;;;;;;;55.23;19.37;;;;;;;3.15;76.31;100835.69;4995695;28;20076;-75
2023/01/26 00:11:51;;;;;;;55.60;19.53;;;;;;;3.15;77.08;100832.22;5001640;28;20031;-75
2023/01/26 00:14:16;;;;;;;57.83;19.00;;;;;;;3.15;76.89;100824.41;5002501;28;20101;-74
2023/01/26 00:16:42;;;;;;;57.13;19.33;;;;;;;3.13;76.57;100811.34;5001780;28;20034;-74
2023/01/26 00:19:07;;;;;;;56.83;19.37;;;;;;;3.14;76.37;100809.63;4999207;28;20026;-75
2023/01/26 00:21:33;;;;;;;47.23;17.73;;;;;;;3.15;76.41;100804.47;5002001;28;20026;-75
2023/01/26 00:23:59;;;;;;;55.17;18.95;;;;;;;3.14;76.39;100805.31;4999704;28;20691;-75
2023/01/26 00:26:26;;;;;;;52.33;17.17;;;;;;;3.14;76.95;100799.22;4999054;28;20080;-75
2023/01/26 00:28:52;;;;;;;52.47;17.45;;;;;;;3.13;76.59;100792.22;4999964;28;20025;-75
2023/01/26 00:31:23;;;;;;;54.28;17.05;;;;;;;3.13;76.83;100779.22;5000254;28;20032;-75
2023/01/26 00:33:50;;;;;;;51.85;16.98;;;;;;;3.12;76.79;100783.53;5000128;28;20030;-75
2023/01/26 00:36:15;;;;;;;57.47;18.73;;;;;;;3.10;76.81;100777.41;4991886;28;20522;-75
2023/01/26 00:38:41;;;;;;;51.38;16.98;;;;;;;3.08;76.58;100771.25;4999752;28;20026;-75
2023/01/26 00:41:06;;;;;;;52.47;16.53;;;;;;;3.05;76.37;100765.06;4999749;28;20026;-75
2023/01/26 00:43:32;;;;;;;50.33;16.40;;;;;;;3.00;76.76;100759.69;4998611;28;20030;-75
2023/01/26 00:45:58;;;;;;;54.40;18.83;;;;;;;2.97;76.61;100759.59;5000005;28;20308;-75
2023/01/26 00:48:23;;;;;;;47.03;16.60;;;;;;;2.93;76.19;100756.00;4998722;28;20034;-75
2023/01/26 00:50:49;;;;;;;54.03;17.27;;;;;;;2.92;76.75;100755.94;4999908;28;20026;-75
2023/01/26 00:53:15;;;;;;;56.17;17.23;;;;;;;2.91;76.89;100752.47;4999729;28;20036;-75
2023/01/26 00:55:41;;;;;;;50.17;16.53;;;;;;;2.89;76.53;100741.09;4999963;28;20054;-75
2023/01/26 00:58:07;;;;;;;51.88;17.88;;;;;;;2.87;76.13;100740.16;4999462;28;20085;-74
2023/01/26 01:00:34;;;;;;;52.43;16.73;;;;;;;2.84;76.19;100738.34;5000012;28;20399;-75
2023/01/26 01:03:01;;;;;;;50.08;16.92;;;;;;;2.81;76.31;100739.97;4999674;28;20018;-74
2023/01/26 01:05:28;;;;;;;49.25;16.70;;;;;;;2.78;76.41;100745.94;4999930;28;20579;-75
2023/01/26 01:07:54;;;;;;;50.08;17.13;;;;;;;2.75;76.37;100738.00;4999223;28;20046;-75
2023/01/26 01:10:20;;;;;;;49.17;17.30;;;;;;;2.74;76.17;100741.44;4998036;28;20073;-75
2023/01/26 01:12:46;;;;;;;51.83;17.00;;;;;;;2.75;76.37;100735.41;5014383;28;20475;-75
2023/01/26 01:15:11;;;;;;;50.60;16.77;;;;;;;2.76;76.43;100737.19;4999843;28;20018;-75
2023/01/26 01:17:37;;;;;;;53.20;16.80;;;;;;;2.79;76.36;100733.81;5002083;28;20045;-75
2023/01/26 01:20:04;;;;;;;51.60;17.33;;;;;;;2.81;76.60;100739.97;5006134;28;20038;-75
2023/01/26 01:22:30;;;;;;;49.88;16.80;;;;;;;2.83;77.00;100736.59;5011293;28;20033;-75
2023/01/26 01:24:56;;;;;;;48.00;15.50;;;;;;;2.84;76.75;100735.75;4999303;28;20076;-75
2023/01/26 01:27:21;;;;;;;41.07;15.67;;;;;;;2.89;76.79;100737.63;4998847;28;20022;-74
2023/01/26 01:29:49;;;;;;;45.33;14.43;;;;;;;2.91;77.09;100730.75;4998449;28;20026;-75
2023/01/26 01:32:14;;;;;;;43.13;14.82;;;;;;;2.93;76.58;100734.28;4999413;28;20391;-75
2023/01/26 01:34:40;;;;;;;46.70;15.13;;;;;;;2.93;76.99;100735.19;4998109;28;20026;-75
2023/01/26 01:37:05;;;;;;;39.72;13.93;;;;;;;2.96;76.45;100730.09;4999108;28;20026;-75
2023/01/26 01:39:30;;;;;;;38.00;13.77;;;;;;;2.97;76.90;100728.38;4998990;28;20033;-74
2023/01/26 01:41:56;;;;;;;43.37;14.27;;;;;;;2.99;76.54;100729.28;4998710;28;20022;-75
2023/01/26 01:44:23;;;;;;;40.33;13.70;;;;;;;2.99;76.93;100731.91;5017333;28;20023;-75
2023/01/26 01:46:55;;;;;;;36.65;13.25;;;;;;;2.97;76.20;100729.25;4997725;28;20077;-75
2023/01/26 01:49:35;;;;;;;34.80;12.60;;;;;;;2.99;76.37;100732.81;4998728;28;20113;-75
2023/01/26 01:52:05;;;;;;;34.45;13.15;;;;;;;3.01;76.87;100727.63;4998927;28;20026;-75
2023/01/26 01:54:38;;;;;;;36.53;12.52;;;;;;;3.03;77.09;100736.41;5030353;28;20050;-75
2023/01/26 01:57:14;;;;;;;30.83;12.23;;;;;;;3.05;76.46;100734.72;4999358;28;20061;-75
2023/01/26 01:59:43;;;;;;;31.33;11.30;;;;;;;3.06;76.36;100736.50;5010523;28;20089;-75
2023/01/26 02:02:09;;;;;;;33.22;11.80;;;;;;;3.06;76.79;100731.31;4998499;28;20109;-75
2023/01/26 02:04:35;;;;;;;36.28;12.73;;;;;;;3.07;76.31;100738.28;4998603;28;20077;-75
2023/01/26 02:07:01;;;;;;;33.63;12.77;;;;;;;3.08;76.82;100744.34;4998779;28;20038;-75
2023/01/26 02:12:22;;;;;;;35.00;12.93;;;;;;;3.07;76.96;100742.56;4998489;28;20525;-75
2023/01/26 02:14:50;;;;;;;37.17;13.43;;;;;;;3.07;76.59;100743.47;4997288;28;20032;-74
2023/01/26 02:17:16;;;;;;;33.60;12.68;;;;;;;3.07;76.46;100743.47;4998553;28;20034;-75
2023/01/26 02:20:20;;;;;;;35.00;13.23;;;;;;;3.06;76.55;100746.00;4997743;28;20073;-75
2023/01/26 02:23:09;;;;;;;38.72;13.43;;;;;;;3.06;76.09;100739.09;5007277;28;20026;-75
2023/01/26 02:25:46;;;;;;;34.08;12.50;;;;;;;3.09;76.39;100731.41;4998060;28;20431;-75
2023/01/26 02:28:12;;;;;;;32.75;12.18;;;;;;;3.12;76.56;100735.81;4997056;28;20117;-75
2023/01/26 02:30:37;;;;;;;36.13;13.90;;;;;;;3.14;76.71;100728.97;4997794;28;20062;-75
2023/01/26 02:33:03;;;;;;;33.43;12.30;;;;;;;3.14;76.41;100729.81;4996634;28;20017;-75
2023/01/26 02:35:28;;;;;;;37.22;13.45;;;;;;;3.15;76.70;100731.59;4997450;28;20065;-75
2023/01/26 02:37:54;;;;;;;34.80;13.57;;;;;;;3.17;76.86;100726.47;4996678;28;20053;-75
2023/01/26 02:40:33;;;;;;;35.87;12.93;;;;;;;3.13;75.75;100735.88;4997645;28;20030;-75
2023/01/26 02:42:58;;;;;;;35.78;12.88;;;;;;;3.16;76.34;100733.38;4997919;28;20030;-75
2023/01/26 02:45:25;;;;;;;34.43;13.33;;;;;;;3.15;76.87;100721.19;4997804;28;20710;-75
2023/01/26 02:47:50;;;;;;;39.50;13.82;;;;;;;3.18;76.83;100728.22;4996422;28;20022;-75
2023/01/26 02:50:16;;;;;;;35.17;12.77;;;;;;;3.22;76.64;100726.59;4997640;28;20033;-74
2023/01/26 02:52:41;;;;;;;40.63;13.70;;;;;;;3.23;77.02;100731.88;4997786;28;20022;-75
2023/01/26 02:58:01;;;;;;;33.97;13.07;;;;;;;3.26;76.34;100721.53;4996000;28;20077;-75
2023/01/26 03:00:35;;;;;;;31.85;12.10;;;;;;;3.26;76.13;100723.28;4997273;28;20487;-75
2023/01/26 03:03:06;;;;;;;37.78;13.70;;;;;;;3.27;76.89;100720.72;4996035;28;20559;-74
2023/01/26 03:05:31;;;;;;;36.83;13.63;;;;;;;3.27;76.27;100714.63;4997578;28;20022;-75
2023/01/26 03:07:57;;;;;;;35.45;13.82;;;;;;;3.28;76.79;100716.41;4997641;28;20041;-74
2023/01/26 03:10:24;;;;;;;34.60;13.40;;;;;;;3.28;76.87;100706.00;4995810;28;20034;-75
2023/01/26 03:12:49;;;;;;;36.72;13.60;;;;;;;3.28;76.63;100703.41;4997268;28;20026;-75
2023/01/26 03:29:03;;;;;;;39.10;14.48;;;;;;;3.22;76.59;100678.03;4985895;28;20094;-75
2023/01/26 03:31:29;;;;;;;33.57;13.47;;;;;;;3.19;76.60;100674.44;4996599;28;20628;-75
2023/01/26 03:33:54;;;;;;;34.23;13.83;;;;;;;3.18;77.09;100668.38;4997023;28;20037;-74
2023/01/26 03:36:19;;;;;;;36.90;13.70;;;;;;;3.19;77.01;100680.53;4997356;28;20038;-75
2023/01/26 03:38:45;;;;;;;27.10;11.27;;;;;;;3.19;76.50;100680.53;5011836;28;20026;-75
2023/01/26 03:57:35;;;;;;;33.75;12.85;;;;;;;3.25;77.07;100656.41;4996201;28;20084;-74
2023/01/26 04:00:00;;;;;;;32.57;12.83;;;;;;;3.27;76.49;100658.25;4996344;28;20038;-75
2023/01/26 04:10:38;;;;;;;33.33;12.52;;;;;;;3.30;77.13;100658.34;4996249;28;20550;-75
2023/01/26 04:21:34;;;;;;;31.35;11.70;;;;;;;3.27;76.49;100631.34;5003090;28;20117;-75
2023/01/26 04:24:08;;;;;;;34.92;12.30;;;;;;;3.26;77.01;100632.19;4997491;28;20034;-75
2023/01/26 04:26:35;;;;;;;31.33;12.43;;;;;;;3.28;76.98;100633.13;4996661;28;20534;-75
2023/01/26 04:29:04;;;;;;;31.35;12.52;;;;;;;3.29;76.75;100619.25;4996962;28;20026;-74
2023/01/26 04:31:30;;;;;;;34.90;13.02;;;;;;;3.30;76.86;100624.50;4994690;28;20054;-74
2023/01/26 04:33:55;;;;;;;34.30;12.10;;;;;;;3.31;76.79;100622.78;4996463;28;20033;-75
2023/01/26 04:36:21;;;;;;;30.73;11.45;;;;;;;3.30;76.74;100626.25;4996879;28;20038;-75
2023/01/26 04:38:46;;;;;;;33.23;12.30;;;;;;;3.31;76.53;100612.38;4996357;28;20036;-74
2023/01/26 04:41:12;;;;;;;33.83;12.30;;;;;;;3.32;76.58;100616.75;4995904;28;20026;-75
2023/01/26 04:43:37;;;;;;;30.13;12.63;;;;;;;3.33;76.56;100610.72;4996634;28;20042;-75
2023/01/26 04:46:06;;;;;;;32.53;12.03;;;;;;;3.33;76.54;100610.72;4996417;28;20045;-75
2023/01/26 04:48:33;;;;;;;29.33;11.50;;;;;;;3.36;76.19;100608.19;4996327;28;20023;-75
2023/01/26 04:51:01;;;;;;;32.88;12.10;;;;;;;3.37;76.91;100604.75;4996044;28;20083;-75
2023/01/26 04:53:27;;;;;;;31.47;12.03;;;;;;;3.39;77.14;100600.47;4996476;28;20030;-75
2023/01/26 04:55:54;;;;;;;33.38;11.25;;;;;;;3.39;76.36;100600.47;4994587;28;20064;-74
2023/01/26 04:58:19;;;;;;;30.23;10.88;;;;;;;3.40;76.60;100594.44;4998728;28;20479;-75
2023/01/26 05:00:50;;;;;;;30.33;11.17;;;;;;;3.41;76.38;100590.13;5000005;28;20053;-74
2023/01/26 05:03:16;;;;;;;35.40;12.20;;;;;;;3.41;76.87;100585.78;4999929;28;20030;-74
2023/01/26 05:05:41;;;;;;;29.93;11.80;;;;;;;3.43;76.67;100585.84;5014884;28;20038;-74
2023/01/26 05:08:06;;;;;;;30.20;11.00;;;;;;;3.44;76.62;100588.47;4999976;28;20054;-74
2023/01/26 05:10:32;;;;;;;30.30;11.25;;;;;;;3.47;76.86;100582.50;4999915;28;20033;-74
2023/01/26 05:12:58;;;;;;;31.43;11.43;;;;;;;3.49;76.45;100579.91;4999796;28;20034;-75
2023/01/26 05:15:23;;;;;;;27.67;10.55;;;;;;;3.48;76.58;100578.16;4999883;28;20031;-74
2023/01/26 05:17:49;;;;;;;27.97;10.73;;;;;;;3.47;76.47;100573.78;4999684;28;20023;-75
2023/01/26 05:20:15;;;;;;;29.17;11.17;;;;;;;3.46;76.26;100578.13;4999724;28;20057;-74
2023/01/26 05:22:40;;;;;;;26.15;10.55;;;;;;;3.43;76.67;100575.44;5007447;28;20029;-74
2023/01/26 05:25:06;;;;;;;25.73;9.93;;;;;;;3.40;76.75;100568.41;4999736;28;20860;-74
2023/01/26 05:27:32;;;;;;;28.65;10.68;;;;;;;3.40;76.83;100563.19;4999360;28;20014;-74
2023/01/26 05:29:59;;;;;;;30.10;10.53;;;;;;;3.41;76.61;100567.56;4999121;28;20101;-74
2023/01/26 05:32:26;;;;;;;30.45;10.60;;;;;;;3.39;76.26;100561.44;4999048;28;20022;-74
2023/01/26 05:34:52;;;;;;;29.33;10.52;;;;;;;3.39;76.63;100558.81;4998628;28;20038;-75
2023/01/26 05:37:18;;;;;;;27.10;10.03;;;;;;;3.37;76.25;100549.19;4999749;28;20087;-75
2023/01/26 05:39:43;;;;;;;29.98;10.75;;;;;;;3.37;76.70;100565.72;4997465;28;20076;-75
2023/01/26 05:42:10;;;;;;;28.03;9.73;;;;;;;3.36;77.04;100556.13;4999337;28;20399;-75
2023/01/26 05:44:35;;;;;;;26.92;9.52;;;;;;;3.36;76.78;100548.31;4999460;28;20502;-75
2023/01/26 05:47:00;;;;;;;28.07;10.27;;;;;;;3.36;76.94;100548.31;4997859;28;20120;-75
2023/01/26 05:49:26;;;;;;;25.07;9.57;;;;;;;3.37;77.14;100550.09;4999080;28;20014;-75
2023/01/26 05:51:51;;;;;;;23.40;8.70;;;;;;;3.37;76.99;100544.88;5013970;28;20109;-75
2023/01/26 05:54:17;;;;;;;25.93;8.80;;;;;;;3.34;76.79;100542.19;4999301;28;20117;-75
2023/01/26 05:56:42;;;;;;;31.87;9.57;;;;;;;3.29;76.74;100542.03;4999007;28;20034;-75
2023/01/26 05:59:08;;;;;;;27.53;9.37;;;;;;;3.29;77.38;100546.38;4999018;28;20026;-75
2023/01/26 06:01:33;;;;;;;29.70;9.15;;;;;;;3.30;76.85;100538.59;4999122;28;20033;-75
2023/01/26 06:03:59;;;;;;;30.37;9.70;;;;;;;3.32;77.19;100536.06;4998676;28;20030;-75
2023/01/26 06:06:24;;;;;;;24.87;9.00;;;;;;;3.31;77.41;100534.28;4998789;28;20026;-75
2023/01/26 06:08:49;;;;;;;30.93;9.63;;;;;;;3.33;77.36;100526.50;4998899;28;20053;-75
2023/01/26 06:11:15;;;;;;;30.00;10.10;;;;;;;3.35;77.47;100530.94;4997425;28;20672;-75
2023/01/26 06:13:40;;;;;;;30.53;10.37;;;;;;;3.36;77.09;100524.00;4998471;28;20034;-75
2023/01/26 06:16:06;;;;;;;27.27;9.43;;;;;;;3.36;76.99;100522.28;4998757;28;20089;-75
2023/01/26 06:18:31;;;;;;;25.13;9.57;;;;;;;3.38;77.10;100525.81;4998610;28;20026;-75
2023/01/26 06:21:00;;;;;;;29.00;10.20;;;;;;;3.40;77.02;100518.06;5002655;28;20018;-74
2023/01/26 06:23:26;;;;;;;31.30;10.60;;;;;;;3.40;77.33;100516.34;5002527;28;20038;-74
2023/01/26 06:25:52;;;;;;;32.35;10.48;;;;;;;3.39;77.35;100519.78;4998157;28;20026;-75
2023/01/26 06:28:20;;;;;;;30.93;10.30;;;;;;;3.41;77.04;100517.22;4998743;28;20033;-75
2023/01/26 06:30:45;;;;;;;30.88;10.50;;;;;;;3.40;76.96;100524.16;4998104;28;20015;-75
2023/01/26 06:33:11;;;;;;;29.33;10.23;;;;;;;3.42;76.95;100519.88;5006677;28;20056;-75
2023/01/26 06:35:36;;;;;;;32.40;11.35;;;;;;;3.44;77.36;100514.72;4998652;28;20375;-74
2023/01/26 06:38:02;;;;;;;31.83;10.90;;;;;;;3.44;76.84;100517.31;4995697;28;20109;-75
2023/01/26 06:40:28;;;;;;;32.17;11.20;;;;;;;3.43;77.41;100516.41;4997290;28;20122;-75
2023/01/26 06:42:53;;;;;;;35.10;10.40;;;;;;;3.41;77.30;100512.91;4993003;28;20034;-75
2023/01/26 06:45:19;;;;;;;34.43;11.70;;;;;;;3.42;77.08;100513.78;4998055;28;20026;-74
2023/01/26 06:47:49;;;;;;;32.38;10.57;;;;;;;3.37;76.51;100503.22;4998130;28;20590;-74
2023/01/26 06:50:18;;;;;;;35.30;10.43;;;;;;;3.35;77.11;100512.72;4996523;28;20046;-74
2023/01/26 06:52:46;;;;;;;33.80;9.60;;;;;;;3.30;77.40;100504.75;4997361;28;20054;-73
2023/01/26 06:55:20;;;;;;;36.67;10.40;;;;;;;3.32;76.94;100503.94;4997188;28;20065;-75
2023/01/26 06:57:46;;;;;;;37.25;11.40;;;;;;;3.32;77.12;100502.22;4997216;28;20033;-75
2023/01/26 07:00:12;;;;;;;32.77;11.10;;;;;;;3.32;77.46;100504.81;4997215;28;20034;-74
2023/01/26 07:02:38;;;;;;;33.33;10.77;;;;;;;3.32;77.26;100501.31;4997521;28;20026;-74
2023/01/26 07:05:04;;;;;;;34.60;10.77;;;;;;;3.34;77.22;100505.75;5001255;28;20398;-73
2023/01/26 07:07:32;;;;;;;38.08;11.23;;;;;;;3.34;77.02;100503.16;4997430;28;20030;-73
2023/01/26 07:09:58;;;;;;;31.00;10.37;;;;;;;3.36;77.67;100500.56;4997406;28;20034;-71
2023/01/26 07:12:23;;;;;;;37.03;11.43;;;;;;;3.39;77.52;100496.34;4995785;28;20482;-70
2023/01/26 07:14:50;;;;;;;37.27;11.17;;;;;;;3.40;77.23;100498.13;4996531;28;20496;-71
2023/01/26 07:17:16;;;;;;;35.15;10.35;;;;;;;3.42;77.67;100499.03;4997055;28;20018;-71
2023/01/26 07:19:41;;;;;;;33.63;10.00;;;;;;;3.45;77.52;100499.13;5004994;28;20109;-71
2023/01/26 07:22:07;;;;;;;26.57;9.57;;;;;;;3.49;77.59;100501.81;5006870;28;20033;-71
2023/01/26 07:24:32;;;;;;;33.13;10.70;;;;;;;3.49;77.42;100496.59;4996787;28;20340;-73
2023/01/26 07:26:58;;;;;;;31.57;9.97;;;;;;;3.49;77.38;100500.09;4995531;28;20014;-73
2023/01/26 07:29:23;;;;;;;35.70;10.93;;;;;;;3.50;77.59;100498.41;4996970;28;20022;-73
2023/01/26 07:31:49;;;;;;;38.72;10.82;;;;;;;3.50;77.15;100499.25;4995095;28;20053;-74
2023/01/26 07:34:15;;;;;;;32.83;11.17;;;;;;;3.51;77.24;100506.22;4996785;28;20030;-74
2023/01/26 07:36:40;;;;;;;34.22;10.75;;;;;;;3.52;77.85;100505.41;4997189;28;20403;-75
2023/01/26 07:39:06;;;;;;;35.90;12.20;;;;;;;3.56;77.63;100508.97;4997269;28;20112;-74
2023/01/26 07:41:31;;;;;;;34.03;10.33;;;;;;;3.58;77.41;100502.09;4996487;28;20162;-73
2023/01/26 07:43:57;;;;;;;31.90;10.43;;;;;;;3.58;77.23;100505.56;5028368;28;20022;-74
2023/01/26 07:46:23;;;;;;;36.30;11.57;;;;;;;3.60;77.46;100508.22;4997022;28;20094;-74
2023/01/26 07:48:49;;;;;;;43.15;10.98;;;;;;;3.63;76.98;100504.84;4997084;28;20028;-74
2023/01/26 07:51:14;;;;;;;38.63;11.43;;;;;;;3.65;77.37;100504.00;5012014;28;20120;-74
2023/01/26 07:53:42;;;;;;;34.43;11.63;;;;;;;3.66;77.04;100507.53;4997294;28;20065;-74
2023/01/26 07:56:13;;;;;;;35.70;10.88;;;;;;;3.65;76.94;100514.44;4996738;28;20084;-74
2023/01/26 07:58:39;;;;;;;38.15;11.93;;;;;;;3.62;76.75;100513.44;4996724;28;20049;-74
2023/01/26 08:01:13;;;;;;;36.35;11.90;;;;;;;3.56;76.44;100503.78;4996767;28;20023;-74
2023/01/26 08:03:40;;;;;;;36.80;12.18;;;;;;;3.56;77.33;100512.44;4996216;28;20027;-74
2023/01/26 08:06:06;;;;;;;34.30;11.87;;;;;;;3.57;77.13;100508.13;4996154;28;20037;-74
2023/01/26 08:08:32;;;;;;;31.45;10.77;;;;;;;3.57;77.21;100505.53;4994601;28;20045;-74
2023/01/26 08:10:59;;;;;;;35.17;10.73;;;;;;;3.58;77.47;100507.28;4996631;28;20023;-70
2023/01/26 08:13:26;;;;;;;27.13;8.47;;;;;;;3.61;77.79;100515.19;4997168;28;20030;-74
2023/01/26 08:15:52;;;;;;;20.73;7.60;;;;;;;3.61;76.97;100507.38;4996467;28;20030;-73
2023/01/26 08:18:18;;;;;;;20.67;7.05;;;;;;;3.64;77.50;100507.47;4996481;28;20033;-74
2023/01/26 08:20:51;;;;;;;21.53;7.33;;;;;;;3.62;76.88;100509.16;4996502;28;20092;-75
2023/01/26 08:23:16;;;;;;;22.52;6.57;;;;;;;3.60;77.38;100510.81;5002677;28;20041;-75
2023/01/26 08:25:42;;;;;;;19.57;7.00;;;;;;;3.61;77.53;100507.38;4996430;28;20034;-75
2023/01/26 08:28:07;;;;;;;19.63;7.85;;;;;;;3.61;77.17;100509.09;4996527;28;20027;-75
2023/01/26 08:30:33;;;;;;;20.93;8.07;;;;;;;3.61;77.16;100509.97;4996680;28;20056;-75
2023/01/26 08:32:58;;;;;;;21.97;7.47;;;;;;;3.60;77.40;100505.63;4998509;28;20074;-75
2023/01/26 08:35:24;;;;;;;24.47;8.90;;;;;;;3.61;77.22;100515.19;5000005;28;20085;-75
2023/01/26 08:37:49;;;;;;;23.77;9.00;;;;;;;3.61;77.19;100504.78;4999802;28;20290;-75
2023/01/26 08:40:15;;;;;;;27.70;9.07;;;;;;;3.65;77.38;100504.00;5000552;28;20030;-75
2023/01/26 08:42:40;;;;;;;20.80;7.93;;;;;;;3.70;77.41;100506.75;5000426;28;20022;-76
2023/01/26 08:45:06;;;;;;;24.50;8.80;;;;;;;3.73;77.52;100507.69;5000885;28;20029;-75
2023/01/26 08:47:32;;;;;;;26.57;9.77;;;;;;;3.77;77.12;100513.03;4998913;28;20506;-75
2023/01/26 08:49:57;;;;;;;26.02;10.25;;;;;;;3.81;77.30;100514.88;4994914;28;20129;-75
2023/01/26 08:52:23;;;;;;;25.47;9.80;;;;;;;3.88;77.18;100514.19;5000558;28;20035;-75
2023/01/26 08:54:48;;;;;;;22.30;9.30;;;;;;;3.91;77.22;100514.28;5000238;28;20022;-75
2023/01/26 08:57:13;;;;;;;27.10;9.50;;;;;;;3.93;76.70;100517.78;4999654;28;20041;-75
2023/01/26 08:59:39;;;;;;;23.67;9.80;;;;;;;3.93;76.80;100515.19;4999848;28;20561;-76
2023/01/26 09:02:04;;;;;;;24.02;9.68;;;;;;;3.94;76.74;100509.13;5000387;28;20026;-74
2023/01/26 09:04:30;;;;;;;24.97;9.47;;;;;;;3.97;77.19;100517.03;4999978;28;20081;-74
2023/01/26 09:06:55;;;;;;;29.57;10.20;;;;;;;3.99;77.03;100512.78;4999603;28;20081;-75
2023/01/26 09:09:21;;;;;;;25.70;10.17;;;;;;;4.00;77.08;100514.53;4999486;28;20039;-75
2023/01/26 09:11:46;;;;;;;27.20;10.07;;;;;;;4.02;76.69;100515.47;5000078;28;20026;-75
2023/01/26 09:14:11;;;;;;;30.97;10.23;;;;;;;4.05;76.79;100504.22;5000145;28;20022;-74
2023/01/26 09:16:37;;;;;;;28.00;12.50;;;;;;;4.10;77.10;100506.94;4999833;28;20022;-75
2023/01/26 09:19:03;;;;;;;32.17;11.83;;;;;;;4.10;76.96;100501.75;4996792;28;20030;-74
2023/01/26 09:21:29;;;;;;;27.38;11.15;;;;;;;4.14;76.81;100504.47;5008210;28;20026;-75
2023/01/26 09:23:55;;;;;;;25.80;11.03;;;;;;;4.17;76.29;100495.84;5000537;28;20030;-75
2023/01/26 09:26:20;;;;;;;27.45;11.38;;;;;;;4.21;76.50;100497.66;4995128;28;20079;-75
2023/01/26 09:28:51;;;;;;;27.63;11.30;;;;;;;4.28;76.82;100502.22;4999401;28;20023;-75
2023/01/26 09:31:17;;;;;;;26.58;10.90;;;;;;;4.32;77.05;100495.34;5002813;28;20019;-75
2023/01/26 09:33:42;;;;;;;30.37;11.50;;;;;;;4.40;76.90;100500.75;4999358;28;20041;-74
2023/01/26 09:36:09;;;;;;;28.30;11.23;;;;;;;4.49;76.62;100498.38;4999662;28;20265;-73
2023/01/26 09:38:35;;;;;;;28.23;11.55;;;;;;;4.59;76.47;100494.28;4986703;28;20059;-74
2023/01/26 09:41:04;;;;;;;30.60;11.13;;;;;;;4.67;76.39;100495.34;4998979;28;20026;-74
2023/01/26 09:43:54;;;;;;;25.08;10.93;;;;;;;4.70;75.92;100489.28;4999016;28;20050;-75
2023/01/26 09:46:50;;;;;;;26.02;11.00;;;;;;;4.73;75.54;100490.25;4999482;28;20027;-74
2023/01/26 09:49:25;;;;;;;24.30;10.57;;;;;;;4.76;76.05;100484.25;4999048;28;20030;-75
2023/01/26 09:52:26;;;;;;;26.02;10.65;;;;;;;4.82;75.75;100481.75;4998885;28;20022;-75
2023/01/26 09:54:56;;;;;;;24.67;10.40;;;;;;;4.88;76.14;100489.72;4949420;29;20562;-73
2023/01/26 09:57:33;;;;;;;23.27;10.55;;;;;;;4.94;76.19;100489.00;4990427;28;20523;-74
2023/01/26 10:00:19;;;;;;;27.20;10.23;;;;;;;4.95;75.04;100493.38;4997404;28;20053;-73
2023/01/26 10:03:00;;;;;;;25.75;11.10;;;;;;;4.98;74.71;100488.22;4997042;28;20411;-74
2023/01/26 10:05:43;;;;;;;23.23;10.20;;;;;;;5.02;74.64;100491.78;4998856;28;20527;-73
2023/01/26 10:08:12;;;;;;;25.33;10.00;;;;;;;5.07;75.52;100497.09;4996058;28;20125;-73
2023/01/26 10:10:45;;;;;;;23.77;10.57;;;;;;;5.06;75.64;100504.03;4996895;28;20022;-74
2023/01/26 10:13:16;;;;;;;22.42;9.30;;;;;;;5.04;74.98;100505.75;4998476;28;20034;-74
2023/01/26 10:15:44;;;;;;;23.45;10.10;;;;;;;5.06;75.65;100509.25;4998995;28;20479;-74
2023/01/26 10:18:28;;;;;;;19.83;9.15;;;;;;;5.07;74.91;100505.81;4998404;28;20030;-74
2023/01/26 10:20:57;;;;;;;22.67;9.33;;;;;;;5.17;75.42;100507.75;4998695;28;20030;-74
2023/01/26 10:23:28;;;;;;;22.60;9.30;;;;;;;5.25;75.20;100501.84;4997360;28;20052;-75
2023/01/26 10:26:03;;;;;;;22.52;9.50;;;;;;;5.25;75.15;100504.44;4987881;28;20036;-73
2023/01/26 10:28:33;;;;;;;23.05;10.30;;;;;;;5.26;75.36;100501.00;4998568;28;20061;-74
2023/01/26 10:31:02;;;;;;;21.75;9.82;;;;;;;5.26;75.29;100496.63;5012378;28;20103;-74
2023/01/26 10:33:36;;;;;;;19.97;9.33;;;;;;;5.27;74.97;100492.31;4997911;28;20044;-74
2023/01/26 10:36:05;;;;;;;19.38;8.45;;;;;;;5.31;75.48;100494.13;4995973;28;20026;-74
2023/01/26 10:38:33;;;;;;;19.85;8.48;;;;;;;5.32;74.92;100480.22;4996724;28;20034;-74
2023/01/26 10:41:00;;;;;;;18.80;8.25;;;;;;;5.36;75.55;100484.66;4996274;28;20026;-74
2023/01/26 10:43:25;;;;;;;21.20;8.90;;;;;;;5.39;75.23;100482.09;4995963;28;20622;-74
2023/01/26 10:45:51;;;;;;;17.27;7.67;;;;;;;5.38;75.09;100480.34;4997952;28;20026;-74
2023/01/26 10:48:18;;;;;;;19.10;8.30;;;;;;;5.34;74.69;100473.31;4998159;28;20033;-73
2023/01/26 10:50:45;;;;;;;16.30;7.32;;;;;;;5.29;74.98;100481.03;4997664;28;20030;-73
2023/01/26 10:53:18;;;;;;;18.98;8.07;;;;;;;5.27;74.81;100476.66;4986665;28;20034;-73
2023/01/26 10:55:56;;;;;;;15.47;6.70;;;;;;;5.29;74.51;100481.03;4997281;28;20045;-76
2023/01/26 10:58:38;;;;;;;20.17;8.50;;;;;;;5.19;72.20;100470.38;4997508;28;20442;-73
2023/01/26 11:01:03;;;;;;;19.38;8.38;;;;;;;5.26;74.49;100470.53;4996269;28;20046;-73
2023/01/26 11:03:29;;;;;;;19.97;7.43;;;;;;;5.25;75.13;100462.69;4997714;28;20034;-73
2023/01/26 11:06:06;;;;;;;22.05;8.85;;;;;;;5.20;73.89;100459.09;4998130;28;20026;-73
2023/01/26 11:08:34;;;;;;;19.08;7.63;;;;;;;5.15;74.96;100456.38;4997932;28;20046;-73
2023/01/26 11:11:00;;;;;;;14.25;7.18;;;;;;;5.11;75.02;100455.41;4996866;28;20038;-73
2023/01/26 11:13:25;;;;;;;17.07;7.87;;;;;;;5.09;74.43;100451.91;4997990;28;20035;-73
2023/01/26 11:16:23;;;;;;;16.55;7.35;;;;;;;5.07;72.52;100443.16;4997367;28;20053;-73
2023/01/26 11:18:58;;;;;;;15.60;7.20;;;;;;;5.27;73.89;100434.88;4996441;28;20026;-73
2023/01/26 11:21:31;;;;;;;19.08;8.07;;;;;;;5.53;74.16;100431.88;5004216;28;20042;-73
2023/01/26 11:24:14;;;;;;;15.30;7.22;;;;;;;5.79;74.77;100439.34;4997440;28;20085;-73
2023/01/26 11:26:57;;;;;;;12.70;5.53;;;;;;;5.97;72.37;100433.53;4997128;28;20034;-73
2023/01/26 11:29:22;;;;;;;13.02;6.50;;;;;;;6.07;72.72;100434.63;4997365;28;20499;-73
2023/01/26 11:32:17;;;;;;;14.07;6.20;;;;;;;6.04;71.28;100425.00;4997555;28;20061;-73
2023/01/26 11:35:07;;;;;;;13.37;6.03;;;;;;;6.17;72.58;100415.63;4997507;28;20022;-73
2023/01/26 11:38:01;;;;;;;13.77;5.63;;;;;;;6.41;72.85;100414.28;4997218;28;20113;-73
2023/01/26 11:40:57;;;;;;;12.23;5.82;;;;;;;6.72;70.64;100399.00;4995165;28;20102;-73
2023/01/26 11:43:23;;;;;;;12.55;5.82;;;;;;;7.01;71.30;100395.91;4995862;28;20073;-73
2023/01/26 11:46:03;;;;;;;11.00;5.47;;;;;;;7.21;71.67;100383.03;4996930;28;20078;-74
2023/01/26 11:49:06;;;;;;;12.02;5.47;;;;;;;7.37;68.81;100383.22;4984770;28;20038;-73
2023/01/26 11:51:55;;;;;;;13.05;6.35;;;;;;;7.57;68.93;100376.44;4997021;28;20030;-73
2023/01/26 11:54:48;;;;;;;13.07;5.90;;;;;;;7.77;70.31;100362.66;4995856;28;20554;-74
2023/01/26 11:57:30;;;;;;;11.50;5.40;;;;;;;7.96;67.35;100363.69;4996834;28;20041;-73
2023/01/26 12:00:20;;;;;;;12.02;5.80;;;;;;;8.11;69.38;100362.94;4985128;28;20042;-73
2023/01/26 12:02:58;;;;;;;13.40;6.05;;;;;;;8.28;69.59;100351.69;5011740;28;20042;-73
2023/01/26 12:05:45;;;;;;;13.10;5.80;;;;;;;8.36;67.92;100352.59;4997423;28;20046;-73
2023/01/26 12:08:22;;;;;;;11.57;5.70;;;;;;;8.43;67.75;100353.53;4996882;28;20038;-73
2023/01/26 12:10:57;;;;;;;11.70;5.72;;;;;;;8.41;68.87;100352.66;4996500;28;20037;-73
2023/01/26 12:13:41;;;;;;;13.57;6.10;;;;;;;8.30;67.37;100348.19;4995746;28;20026;-73
2023/01/26 12:16:16;;;;;;;12.43;5.82;;;;;;;8.28;68.26;100342.06;4997064;28;20133;-73
2023/01/26 12:18:53;;;;;;;13.13;6.00;;;;;;;8.23;69.61;100341.16;4996349;28;20031;-73
2023/01/26 12:21:20;;;;;;;13.63;6.40;;;;;;;8.15;69.74;100342.84;4996035;28;20448;-73